Time;durP1;ratioP1;P1;durP2;ratioP2;P2;SDS_P1;SDS_P2;PMS_P1;PMS_P2;Temp;Humidity;BMP_temperature;BMP_pressure;BME280_temperature;BME280_humidity;BME280_pressure;Samples;Min_cycle;Max_cycle;Signal;HPM_P1;HPM_P2
2024/01/09 00:02:13;;;;;;;;;32.00;20.50;;;;;1.28;63.61;102287.44;4979033;28;45268;-38
2024/01/09 00:04:39;;;;;;;;;23.00;21.00;;;;;1.27;63.71;102278.72;4978520;28;45455;-38
2024/01/09 00:07:04;;;;;;;;;35.00;24.00;;;;;1.27;63.55;102283.97;4979161;28;50811;-36
2024/01/09 00:09:33;;;;;;;;;29.75;23.50;;;;;1.22;63.88;102267.50;4978760;28;45228;-38
2024/01/09 00:11:59;;;;;;;;;24.50;21.50;;;;;1.23;63.73;102267.47;4978862;28;45452;-37
2024/01/09 00:14:24;;;;;;;;;33.00;28.50;;;;;1.29;63.24;102271.66;4978658;28;46142;-37
2024/01/09 00:16:49;;;;;;;;;22.50;18.25;;;;;1.29;63.13;102268.16;4978509;28;45834;-38
2024/01/09 00:19:16;;;;;;;;;39.25;22.00;;;;;1.29;62.52;102270.78;4979105;28;45401;-35
2024/01/09 00:21:41;;;;;;;;;21.25;21.25;;;;;1.30;62.75;102262.88;4979344;28;45296;-36
2024/01/09 00:24:07;;;;;;;;;14.50;13.00;;;;;1.29;62.68;102261.16;4978648;28;45819;-39
2024/01/09 00:26:42;;;;;;;;;21.25;18.00;;;;;1.30;62.53;102267.25;4978582;28;45307;-35
2024/01/09 00:29:07;;;;;;;;;25.75;21.25;;;;;1.27;62.20;102256.91;4978434;28;45311;-37
2024/01/09 00:31:33;;;;;;;;;25.00;15.75;;;;;1.28;62.04;102258.59;4978484;28;45362;-37
2024/01/09 00:33:59;;;;;;;;;22.00;18.00;;;;;1.11;61.89;102236.41;4977750;28;46332;-37
2024/01/09 00:36:24;;;;;;;;;19.75;16.25;;;;;1.23;62.61;102256.97;4978433;28;45553;-38
2024/01/09 00:38:50;;;;;;;;;15.00;15.00;;;;;1.21;62.48;102248.28;4978715;28;45394;-37
2024/01/09 00:41:15;;;;;;;;;22.75;18.00;;;;;1.19;62.13;102244.03;4978461;28;45322;-41
2024/01/09 00:43:40;;;;;;;;;21.00;15.75;;;;;1.16;61.62;102239.72;4978085;28;45338;-37
2024/01/09 00:46:06;;;;;;;;;23.25;17.25;;;;;1.07;61.32;102229.56;4978214;28;45437;-37
2024/01/09 00:48:31;;;;;;;;;16.50;16.50;;;;;1.18;61.95;102245.78;4978196;28;45582;-38
2024/01/09 00:50:56;;;;;;;;;16.25;12.25;;;;;1.09;61.85;102227.72;4978333;28;45516;-38
2024/01/09 00:53:22;;;;;;;;;17.75;15.00;;;;;1.20;61.62;102241.34;4977678;28;50372;-38
2024/01/09 00:55:47;;;;;;;;;22.00;18.00;;;;;1.20;61.30;102245.72;4977969;28;45458;-38
2024/01/09 00:58:12;;;;;;;;;26.00;14.50;;;;;1.21;61.84;102242.19;4977939;28;45452;-37
2024/01/09 01:00:38;;;;;;;;;14.50;14.50;;;;;1.20;61.37;102238.72;4977912;28;45284;-35
2024/01/09 01:03:03;;;;;;;;;22.00;15.25;;;;;1.19;61.03;102244.88;4977837;28;46396;-37
2024/01/09 01:05:29;;;;;;;;;20.75;15.25;;;;;1.08;61.16;102231.25;4977628;28;45378;-38
2024/01/09 01:07:54;;;;;;;;;15.25;13.00;;;;;1.18;61.35;102244.91;4977929;28;45445;-37
2024/01/09 01:10:20;;;;;;;;;22.00;15.25;;;;;1.15;61.34;102238.03;4978018;28;45362;-37
2024/01/09 01:12:45;;;;;;;;;14.00;13.25;;;;;1.17;60.55;102245.81;4977401;28;46125;-36
2024/01/09 01:15:10;;;;;;;;;24.75;12.75;;;;;1.11;61.48;102233.78;4977779;28;45396;-37
2024/01/09 01:17:36;;;;;;;;;19.75;15.75;;;;;1.13;61.01;102234.56;4977536;28;45450;-35
2024/01/09 01:20:02;;;;;;;;;19.25;13.50;;;;;1.12;60.79;102242.50;4977994;28;45467;-37
2024/01/09 01:22:27;;;;;;;;;15.25;12.00;;;;;1.10;61.18;102236.47;4977248;28;47160;-37
2024/01/09 01:24:52;;;;;;;;;22.50;12.75;;;;;1.09;60.68;102240.81;4977273;28;45283;-37
2024/01/09 01:27:18;;;;;;;;;11.75;9.50;;;;;1.08;60.84;102231.25;4977528;28;45286;-42
2024/01/09 01:29:43;;;;;;;;;17.50;11.00;;;;;1.07;60.56;102233.94;4978259;28;45351;-38
2024/01/09 01:32:10;;;;;;;;;13.00;11.50;;;;;1.06;60.84;102235.72;4975824;28;48122;-38
2024/01/09 01:34:36;;;;;;;;;18.50;11.25;;;;;1.05;60.88;102233.97;4977527;28;45389;-37
2024/01/09 01:37:02;;;;;;;;;14.50;12.00;;;;;1.08;60.23;102241.75;4977488;28;45411;-37
2024/01/09 01:39:27;;;;;;;;;14.50;13.50;;;;;1.06;60.23;102233.09;4977224;28;45343;-37
2024/01/09 01:41:53;;;;;;;;;10.00;9.00;;;;;1.06;60.63;102238.31;4977477;28;46095;-37
2024/01/09 01:44:19;;;;;;;;;17.00;14.25;;;;;1.06;60.48;102243.56;4977176;28;45444;-38
2024/01/09 01:46:46;;;;;;;;;9.75;9.00;;;;;1.01;60.57;102234.97;4977831;28;45434;-37
2024/01/09 01:49:14;;;;;;;;;15.00;12.50;;;;;0.88;60.36;102212.69;4977848;28;45457;-37
2024/01/09 01:51:41;;;;;;;;;12.25;10.50;;;;;0.99;60.39;102239.41;4977166;28;45326;-39
2024/01/09 01:54:07;;;;;;;;;20.75;15.00;;;;;1.04;60.63;102247.13;4977660;28;45577;-37
2024/01/09 01:56:33;;;;;;;;;16.00;15.25;;;;;1.03;60.38;102250.66;4977694;28;45348;-38
2024/01/09 01:58:58;;;;;;;;;18.00;11.75;;;;;0.95;60.54;102237.78;4977543;28;45408;-38
2024/01/09 02:01:25;;;;;;;;;16.00;10.50;;;;;1.02;60.31;102243.72;4977660;28;45969;-38
2024/01/09 02:03:51;;;;;;;;;10.75;8.75;;;;;1.03;60.61;102246.28;4977617;28;45340;-38
2024/01/09 02:06:17;;;;;;;;;15.75;12.00;;;;;1.06;60.62;102245.34;4977466;28;45284;-38
2024/01/09 02:08:43;;;;;;;;;10.75;9.00;;;;;1.05;60.42;102239.22;4977721;28;45284;-37
2024/01/09 02:11:10;;;;;;;;;17.25;11.00;;;;;1.00;60.56;102233.25;4977023;28;47479;-40
2024/01/09 02:13:35;;;;;;;;;16.00;11.25;;;;;1.03;60.34;102240.19;4975814;28;45634;-39
2024/01/09 02:16:01;;;;;;;;;11.00;10.00;;;;;1.03;60.05;102243.66;4977930;28;45452;-37
2024/01/09 02:18:26;;;;;;;;;9.00;9.00;;;;;1.02;60.61;102230.63;4977252;28;45319;-36
2024/01/09 02:20:52;;;;;;;;;13.75;10.00;;;;;1.03;60.34;102241.03;4977273;28;46272;-38
2024/01/09 02:23:17;;;;;;;;;11.00;10.00;;;;;1.04;60.04;102234.03;4977157;28;45431;-37
2024/01/09 02:25:43;;;;;;;;;9.25;8.50;;;;;1.00;60.62;102231.50;4977217;28;45374;-35
2024/01/09 02:28:26;;;;;;;;;18.75;14.00;;;;;1.02;60.06;102233.22;4977286;28;45457;-38
2024/01/09 02:30:55;;;;;;;;;7.00;7.00;;;;;1.00;60.48;102236.75;4977132;28;45416;-33
2024/01/09 02:33:21;;;;;;;;;14.50;13.25;;;;;1.02;59.86;102228.00;4976993;28;45441;-40
2024/01/09 02:35:46;;;;;;;;;19.00;13.00;;;;;0.99;59.72;102224.53;4976615;28;45511;-36
2024/01/09 02:38:11;;;;;;;;;18.75;9.00;;;;;0.99;60.07;102221.06;4977533;28;45334;-42
2024/01/09 02:40:37;;;;;;;;;22.75;15.75;;;;;1.01;59.73;102229.72;4976470;28;45323;-41
2024/01/09 02:43:02;;;;;;;;;16.75;9.00;;;;;1.00;59.57;102220.16;4976991;28;45510;-38
2024/01/09 02:45:28;;;;;;;;;19.50;10.50;;;;;0.98;60.10;102230.69;4976777;28;45363;-36
2024/01/09 02:47:53;;;;;;;;;13.75;13.50;;;;;0.89;59.61;102215.28;4976679;28;45315;-38
2024/01/09 02:50:20;;;;;;;;;16.00;10.00;;;;;0.98;59.91;102233.31;4976325;28;46330;-39
2024/01/09 02:52:46;;;;;;;;;14.50;10.00;;;;;1.00;59.82;102231.50;4976177;28;45287;-38
2024/01/09 02:55:11;;;;;;;;;16.50;12.00;;;;;0.95;60.31;102224.69;4976478;28;45385;-35
2024/01/09 02:57:40;;;;;;;;;14.00;8.50;;;;;0.86;60.00;102207.50;4979984;28;45322;-37
2024/01/09 03:00:08;;;;;;;;;18.25;11.00;;;;;0.99;60.31;102224.53;4979465;28;46306;-36
2024/01/09 03:02:35;;;;;;;;;10.00;9.50;;;;;0.99;59.91;102234.19;4979558;28;45404;-41
2024/01/09 03:05:00;;;;;;;;;10.00;10.00;;;;;0.97;59.59;102229.00;4979725;28;45389;-39
2024/01/09 03:07:25;;;;;;;;;16.75;14.25;;;;;0.93;59.41;102227.38;4979875;28;45378;-44
2024/01/09 03:09:51;;;;;;;;;16.50;12.75;;;;;0.92;60.05;102223.03;4979540;28;45343;-41
2024/01/09 03:12:16;;;;;;;;;11.50;7.25;;;;;0.91;59.67;102226.56;4979469;28;45461;-36
2024/01/09 03:14:41;;;;;;;;;11.25;10.50;;;;;0.91;59.41;102217.84;4979972;28;45311;-39
2024/01/09 03:17:07;;;;;;;;;17.00;15.75;;;;;0.90;59.99;102214.38;4980124;28;45390;-37
2024/01/09 03:19:33;;;;;;;;;10.25;6.75;;;;;0.86;59.74;102209.28;4979761;28;45412;-41
2024/01/09 03:21:58;;;;;;;;;9.50;8.50;;;;;0.88;59.14;102213.53;4979678;28;45386;-48
2024/01/09 03:24:23;;;;;;;;;20.00;12.50;;;;;0.88;59.51;102210.06;4979416;28;45720;-38
2024/01/09 03:26:49;;;;;;;;;12.00;8.50;;;;;0.87;60.02;102209.22;4979541;28;45323;-40
2024/01/09 03:29:18;;;;;;;;;19.75;11.00;;;;;0.87;59.52;102217.06;4978892;28;47065;-42
2024/01/09 03:31:43;;;;;;;;;11.00;11.00;;;;;0.88;59.79;102216.16;4979026;28;45482;-41
2024/01/09 03:34:08;;;;;;;;;16.25;10.50;;;;;0.87;60.12;102211.84;4979504;28;45468;-44
2024/01/09 03:36:34;;;;;;;;;14.25;12.00;;;;;0.88;59.60;102217.94;4979868;28;45268;-41
2024/01/09 03:38:59;;;;;;;;;12.50;12.00;;;;;0.85;59.76;102220.66;4979313;28;45971;-37
2024/01/09 03:41:24;;;;;;;;;10.00;9.50;;;;;0.83;59.69;102218.06;4980059;28;45316;-39
2024/01/09 03:43:50;;;;;;;;;13.00;13.00;;;;;0.83;59.53;102217.22;4980451;28;45284;-39
2024/01/09 03:46:15;;;;;;;;;16.25;11.25;;;;;0.84;59.92;102216.31;4980512;28;45359;-41
2024/01/09 03:48:41;;;;;;;;;14.00;12.00;;;;;0.84;59.61;102211.06;4979322;28;46053;-38
2024/01/09 03:51:06;;;;;;;;;19.75;12.25;;;;;0.84;59.68;102211.91;4978958;28;45367;-39
2024/01/09 03:53:31;;;;;;;;;12.25;7.00;;;;;0.81;60.20;102200.72;4979432;28;45728;-38
2024/01/09 03:55:57;;;;;;;;;15.00;12.00;;;;;0.84;59.71;102206.69;4979684;28;45466;-38
2024/01/09 03:58:22;;;;;;;;;7.00;6.25;;;;;0.84;59.81;102198.81;4978834;28;46180;-41
2024/01/09 04:00:48;;;;;;;;;14.50;13.00;;;;;0.84;59.46;102204.06;4978889;28;45438;-40
2024/01/09 04:03:14;;;;;;;;;13.00;9.00;;;;;0.81;59.59;102195.47;4979051;28;45402;-40
2024/01/09 04:05:39;;;;;;;;;12.00;10.00;;;;;0.84;59.72;102196.22;4979706;28;45381;-41
2024/01/09 04:08:05;;;;;;;;;6.25;6.25;;;;;0.86;59.27;102206.66;4979284;28;45971;-39
2024/01/09 04:10:31;;;;;;;;;10.75;8.50;;;;;0.80;59.56;102194.63;4980819;28;45406;-39
2024/01/09 04:12:56;;;;;;;;;19.00;15.00;;;;;0.86;59.51;102206.66;4980084;28;45341;-40
2024/01/09 04:15:21;;;;;;;;;23.50;18.25;;;;;0.85;59.63;102204.94;4978983;28;45402;-39
2024/01/09 04:17:47;;;;;;;;;17.25;13.00;;;;;0.84;59.32;102203.22;4978533;28;45268;-39
2024/01/09 04:20:12;;;;;;;;;17.25;13.75;;;;;0.82;59.75;102200.66;4978396;28;45212;-38
2024/01/09 04:22:38;;;;;;;;;12.75;10.00;;;;;0.84;59.93;102197.97;4978406;28;45454;-39
2024/01/09 04:25:04;;;;;;;;;14.75;11.25;;;;;0.84;60.04;102204.06;4978565;28;45301;-40
2024/01/09 04:27:29;;;;;;;;;10.75;9.25;;;;;0.81;59.65;102201.56;4978210;28;46384;-38
2024/01/09 04:29:55;;;;;;;;;19.50;13.00;;;;;0.84;59.62;102205.81;4978146;28;45288;-41
2024/01/09 04:32:20;;;;;;;;;14.50;12.25;;;;;0.75;59.59;102188.63;4978231;28;45395;-40
2024/01/09 04:34:46;;;;;;;;;18.75;12.00;;;;;0.82;59.92;102208.50;4978747;28;45395;-46
2024/01/09 04:37:11;;;;;;;;;15.00;14.00;;;;;0.82;59.74;102197.19;4978172;28;46287;-45
2024/01/09 04:39:36;;;;;;;;;16.50;11.25;;;;;0.82;59.93;102192.78;4978183;28;45481;-41
2024/01/09 04:42:02;;;;;;;;;17.75;10.25;;;;;0.83;59.89;102209.38;4978405;28;45374;-39
2024/01/09 04:44:27;;;;;;;;;9.50;9.50;;;;;0.82;59.64;102205.03;4977005;28;45374;-38
2024/01/09 04:46:52;;;;;;;;;12.25;12.25;;;;;0.81;59.81;102196.31;4978066;28;45361;-38
2024/01/09 04:49:18;;;;;;;;;14.00;9.00;;;;;0.81;59.85;102208.56;4976605;28;45478;-38
2024/01/09 04:51:43;;;;;;;;;18.00;13.00;;;;;0.77;59.39;102205.19;4978357;28;45308;-38
2024/01/09 04:54:09;;;;;;;;;14.00;10.00;;;;;0.77;59.73;102209.56;4978437;28;45390;-36
2024/01/09 04:56:34;;;;;;;;;11.00;11.00;;;;;0.75;59.66;102213.06;4978073;28;46069;-38
2024/01/09 04:59:00;;;;;;;;;13.25;11.50;;;;;0.73;60.00;102207.03;4977689;28;45373;-38
2024/01/09 05:01:25;;;;;;;;;17.25;11.00;;;;;0.73;60.05;102204.41;4977800;28;45305;-38
2024/01/09 05:03:53;;;;;;;;;11.00;9.00;;;;;0.76;59.54;102213.97;4977952;28;45482;-38
2024/01/09 05:06:19;;;;;;;;;15.00;12.25;;;;;0.75;59.64;102206.97;4977375;28;45925;-38
2024/01/09 05:08:45;;;;;;;;;16.00;12.00;;;;;0.74;59.62;102206.13;4977557;28;45287;-39
2024/01/09 05:11:11;;;;;;;;;17.50;12.75;;;;;0.74;59.08;102206.13;4977685;28;45338;-39
2024/01/09 05:13:36;;;;;;;;;9.75;9.75;;;;;0.71;59.13;102206.22;4978064;28;45382;-38
2024/01/09 05:16:02;;;;;;;;;10.50;7.50;;;;;0.66;59.56;102197.66;4976230;28;48103;-38
2024/01/09 05:18:27;;;;;;;;;12.75;10.00;;;;;0.67;59.13;102207.22;4976885;28;45427;-38
2024/01/09 05:20:53;;;;;;;;;12.00;12.00;;;;;0.63;59.45;102199.50;4977542;28;45971;-39
2024/01/09 05:23:18;;;;;;;;;12.75;10.25;;;;;0.66;59.51;102212.50;4977784;28;45444;-38
2024/01/09 05:25:43;;;;;;;;;15.50;12.25;;;;;0.67;59.14;102203.72;4977231;28;45359;-37
2024/01/09 05:28:09;;;;;;;;;10.25;8.75;;;;;0.65;59.64;102197.69;4977489;28;45501;-39
2024/01/09 05:30:34;;;;;;;;;17.00;15.00;;;;;0.66;59.40;102202.88;4977311;28;45260;-39
2024/01/09 05:33:00;;;;;;;;;15.25;12.75;;;;;0.57;59.55;102197.94;4977694;28;45375;-38
2024/01/09 05:35:25;;;;;;;;;11.00;11.00;;;;;0.66;59.10;102202.03;4976919;28;48025;-37
2024/01/09 05:37:50;;;;;;;;;20.00;14.00;;;;;0.60;59.04;102200.47;4977081;28;45684;-37
2024/01/09 05:40:17;;;;;;;;;25.00;17.00;;;;;0.47;58.71;102173.81;4977121;28;45500;-38
2024/01/09 05:42:43;;;;;;;;;10.00;7.50;;;;;0.59;59.13;102196.16;4977235;28;45484;-37
2024/01/09 05:45:09;;;;;;;;;25.50;15.25;;;;;0.58;58.44;102199.63;4976593;28;47024;-37
2024/01/09 05:47:34;;;;;;;;;15.25;12.25;;;;;0.58;58.41;102198.78;4977283;28;45271;-38
2024/01/09 05:50:00;;;;;;;;;15.75;15.00;;;;;0.56;59.22;102195.38;4976972;28;45729;-37
2024/01/09 05:52:25;;;;;;;;;21.25;16.00;;;;;0.58;58.50;102191.78;4977206;28;45374;-37
2024/01/09 05:54:50;;;;;;;;;15.75;12.25;;;;;0.58;58.81;102199.63;4975591;28;46318;-37
2024/01/09 05:57:16;;;;;;;;;17.25;13.50;;;;;0.58;58.69;102194.41;4975641;28;45339;-38
2024/01/09 05:59:41;;;;;;;;;17.75;11.75;;;;;0.60;58.59;102200.47;4976960;28;45294;-39
2024/01/09 06:02:07;;;;;;;;;17.50;14.50;;;;;0.60;58.86;102194.38;4977096;28;45470;-39
2024/01/09 06:04:32;;;;;;;;;15.50;11.00;;;;;0.61;58.65;102194.31;4975547;28;46253;-37
2024/01/09 06:06:57;;;;;;;;;13.00;12.75;;;;;0.64;58.30;102196.00;4976900;28;45423;-37
2024/01/09 06:09:23;;;;;;;;;13.25;11.50;;;;;0.64;58.57;102204.72;4976978;28;45361;-40
2024/01/09 06:11:48;;;;;;;;;23.50;18.00;;;;;0.65;58.86;102197.69;4977199;28;45424;-38
2024/01/09 06:14:13;;;;;;;;;24.75;20.50;;;;;0.66;58.85;102202.88;4976486;28;45516;-37
2024/01/09 06:16:39;;;;;;;;;23.25;15.25;;;;;0.67;59.07;102207.22;4976715;28;45515;-38
2024/01/09 06:19:04;;;;;;;;;21.00;18.00;;;;;0.68;58.70;102208.09;4976943;28;45347;-37
2024/01/09 06:21:29;;;;;;;;;19.00;13.50;;;;;0.56;58.82;102185.75;4975532;28;45346;-37
2024/01/09 06:23:55;;;;;;;;;16.25;13.00;;;;;0.67;58.58;102206.34;4976464;28;46044;-38
2024/01/09 06:26:20;;;;;;;;;25.00;10.00;;;;;0.63;58.36;102205.63;4975118;28;45407;-35
2024/01/09 06:28:45;;;;;;;;;21.75;14.00;;;;;0.61;59.09;102217.88;4976804;28;45378;-38
2024/01/09 06:31:11;;;;;;;;;18.50;17.50;;;;;0.52;58.90;102196.38;4978500;28;45330;-36
2024/01/09 06:33:36;;;;;;;;;17.00;13.50;;;;;0.62;59.18;102208.25;4980013;28;46106;-38
2024/01/09 06:36:02;;;;;;;;;20.00;15.75;;;;;0.61;58.88;102204.78;4980161;28;45339;-36
2024/01/09 06:38:27;;;;;;;;;32.50;17.50;;;;;0.61;58.85;102210.03;4980088;28;45466;-37
2024/01/09 06:40:52;;;;;;;;;22.00;15.50;;;;;0.58;58.32;102210.13;4980063;28;45461;-37
2024/01/09 06:43:18;;;;;;;;;19.75;14.25;;;;;0.56;59.23;102204.09;4979897;28;46190;-37
2024/01/09 06:45:43;;;;;;;;;21.50;18.00;;;;;0.56;58.57;102206.69;4979877;28;45405;-39
2024/01/09 06:48:09;;;;;;;;;20.00;19.00;;;;;0.54;58.66;102205.88;4979786;28;45339;-36
2024/01/09 06:50:35;;;;;;;;;22.00;17.25;;;;;0.52;58.26;102210.31;4980261;28;45421;-37
2024/01/09 06:53:00;;;;;;;;;20.00;13.25;;;;;0.53;58.48;102211.16;4979615;28;46854;-38
2024/01/09 06:55:26;;;;;;;;;16.25;16.25;;;;;0.56;58.27;102208.47;4979540;28;45381;-38
2024/01/09 06:57:52;;;;;;;;;22.00;16.25;;;;;0.55;58.75;102212.84;4979841;28;45387;-37
2024/01/09 07:00:18;;;;;;;;;22.00;18.25;;;;;0.59;58.26;102216.22;4979871;28;45452;-37
2024/01/09 07:02:44;;;;;;;;;19.25;16.00;;;;;0.60;58.44;102207.47;4979510;28;47250;-37
2024/01/09 07:05:10;;;;;;;;;20.00;13.50;;;;;0.63;58.67;102215.22;4979449;28;45382;-38
2024/01/09 07:07:35;;;;;;;;;24.50;15.25;;;;;0.56;58.54;102201.47;4979692;28;45422;-37
2024/01/09 07:10:01;;;;;;;;;20.25;15.25;;;;;0.59;58.57;102211.84;4979630;28;45358;-36
2024/01/09 07:12:27;;;;;;;;;20.25;15.00;;;;;0.55;59.15;102207.63;4979162;28;46000;-37
2024/01/09 07:14:53;;;;;;;;;21.25;16.00;;;;;0.57;58.47;102212.78;4979057;28;45488;-37
2024/01/09 07:17:18;;;;;;;;;35.50;22.00;;;;;0.54;58.46;102211.09;4979338;28;45316;-37
2024/01/09 07:19:43;;;;;;;;;15.25;15.25;;;;;0.56;58.96;102208.47;4979868;28;45276;-38
2024/01/09 07:22:09;;;;;;;;;27.50;22.75;;;;;0.54;58.69;102212.88;4979309;28;46174;-35
2024/01/09 07:24:34;;;;;;;;;30.00;23.75;;;;;0.53;59.21;102205.94;4979212;28;45394;-37
2024/01/09 07:26:59;;;;;;;;;21.25;18.00;;;;;0.48;58.51;102204.31;4979236;28;45253;-37
2024/01/09 07:29:25;;;;;;;;;26.75;15.75;;;;;0.56;58.40;102221.56;4979200;28;45461;-38
2024/01/09 07:31:50;;;;;;;;;24.00;21.00;;;;;0.55;58.13;102217.19;4978811;28;45578;-37
2024/01/09 07:34:15;;;;;;;;;25.50;16.50;;;;;0.36;58.47;102182.88;4978836;28;45175;-38
2024/01/09 07:36:42;;;;;;;;;21.00;16.25;;;;;0.55;58.76;102211.97;4978920;28;45400;-35
2024/01/09 07:39:09;;;;;;;;;27.75;21.75;;;;;0.56;58.82;102222.41;4978778;28;45430;-38
2024/01/09 07:41:35;;;;;;;;;21.50;11.50;;;;;0.58;58.87;102207.50;4978430;28;46931;-38
2024/01/09 07:44:01;;;;;;;;;32.25;20.50;;;;;0.59;58.68;102214.47;4978442;28;45373;-37
2024/01/09 07:46:26;;;;;;;;;17.00;13.50;;;;;0.61;58.50;102217.03;4978523;28;45477;-38
2024/01/09 07:48:51;;;;;;;;;15.50;13.00;;;;;0.56;58.98;102211.94;4978952;28;45362;-38
2024/01/09 07:51:17;;;;;;;;;26.50;17.00;;;;;0.58;58.61;102219.75;4978484;28;45474;-39
2024/01/09 07:53:42;;;;;;;;;22.50;19.50;;;;;0.57;58.91;102218.03;4978322;28;45302;-37
2024/01/09 07:56:17;;;;;;;;;22.50;19.00;;;;;0.59;59.03;102224.06;4978393;28;45449;-38
2024/01/09 07:58:43;;;;;;;;;22.50;18.00;;;;;0.57;58.63;102224.13;4978755;28;45420;-37
2024/01/09 08:01:10;;;;;;;;;24.25;20.00;;;;;0.56;58.67;102226.78;4978154;28;47033;-37
2024/01/09 08:03:36;;;;;;;;;32.50;20.25;;;;;0.53;58.81;102227.72;4979092;28;45267;-37
2024/01/09 08:06:01;;;;;;;;;25.50;17.25;;;;;0.54;59.16;102225.97;4978714;28;45223;-38
2024/01/09 08:08:26;;;;;;;;;21.75;15.50;;;;;0.54;59.00;102226.81;4978768;28;45272;-38
2024/01/09 08:10:52;;;;;;;;;24.75;20.50;;;;;0.55;58.96;102225.94;4978376;28;46305;-39
2024/01/09 08:13:17;;;;;;;;;22.00;18.75;;;;;0.57;59.03;102231.13;4978876;28;45753;-40
2024/01/09 08:15:42;;;;;;;;;25.00;20.00;;;;;0.46;58.67;102206.13;4979140;28;45470;-38
2024/01/09 08:18:08;;;;;;;;;27.25;21.00;;;;;0.57;59.26;102225.88;4979650;28;45473;-38
2024/01/09 08:20:33;;;;;;;;;26.25;19.50;;;;;0.62;59.24;102227.44;4977333;28;45883;-38
2024/01/09 08:22:58;;;;;;;;;19.50;16.75;;;;;0.62;58.67;102232.69;4978426;28;45417;-39
2024/01/09 08:25:24;;;;;;;;;19.25;17.25;;;;;0.60;58.82;102228.41;4978461;28;45433;-37
2024/01/09 08:27:49;;;;;;;;;26.00;21.75;;;;;0.63;59.13;102233.53;4978412;28;45529;-38
2024/01/09 08:30:15;;;;;;;;;22.00;20.25;;;;;0.65;59.03;102237.84;4978189;28;46250;-37
2024/01/09 08:32:40;;;;;;;;;26.75;17.50;;;;;0.65;58.95;102237.00;4978308;28;45549;-38
2024/01/09 08:35:06;;;;;;;;;30.75;21.75;;;;;0.51;59.01;102211.22;4978541;28;45534;-39
2024/01/09 08:37:32;;;;;;;;;19.00;18.00;;;;;0.48;59.05;102217.41;4978497;28;45422;-37
2024/01/09 08:39:57;;;;;;;;;20.25;14.25;;;;;0.64;59.14;102244.00;4978090;28;46068;-38
2024/01/09 08:42:22;;;;;;;;;23.25;18.50;;;;;0.64;58.71;102245.75;4978007;28;47662;-38
2024/01/09 08:44:48;;;;;;;;;23.50;18.50;;;;;0.60;58.93;102244.13;4978508;28;45319;-36
2024/01/09 08:47:13;;;;;;;;;18.75;17.00;;;;;0.68;59.12;102253.47;4978011;28;45371;-39
2024/01/09 08:49:38;;;;;;;;;32.00;20.50;;;;;0.68;58.68;102250.00;4977990;28;46942;-39
2024/01/09 08:52:05;;;;;;;;;35.00;22.00;;;;;0.67;58.47;102250.88;4978140;28;45193;-39
2024/01/09 08:54:30;;;;;;;;;23.50;21.50;;;;;0.62;58.24;102258.88;4977270;28;45404;-40
2024/01/09 08:56:55;;;;;;;;;23.00;17.50;;;;;0.59;57.93;102256.38;4977060;28;45388;-38
2024/01/09 08:59:21;;;;;;;;;17.00;14.00;;;;;0.58;58.45;102251.16;4977649;28;48855;-39
2024/01/09 09:01:46;;;;;;;;;20.00;15.25;;;;;0.53;58.35;102234.72;4977686;28;45414;-36
2024/01/09 09:04:12;;;;;;;;;31.00;24.25;;;;;0.57;57.78;102252.06;4976489;28;45373;-37
2024/01/09 09:06:37;;;;;;;;;23.25;15.50;;;;;0.56;58.31;102252.97;4978146;28;45264;-37
2024/01/09 09:09:04;;;;;;;;;21.25;15.75;;;;;0.53;58.04;102256.53;4977749;28;46173;-39
2024/01/09 09:11:31;;;;;;;;;29.75;17.75;;;;;0.48;57.12;102255.81;4969964;28;45908;-40
2024/01/09 09:13:57;;;;;;;;;26.25;19.00;;;;;0.63;58.05;102264.97;4974169;28;45453;-38
2024/01/09 09:16:23;;;;;;;;;43.50;25.50;;;;;0.66;57.24;102263.13;4974628;28;46620;-40
2024/01/09 09:18:48;;;;;;;;;22.50;19.50;;;;;0.69;57.53;102262.19;4974489;28;46137;-39
2024/01/09 09:21:17;;;;;;;;;27.00;25.00;;;;;0.70;57.78;102256.88;4973282;28;45319;-38
2024/01/09 09:23:42;;;;;;;;;23.00;19.75;;;;;0.70;58.06;102253.41;4973373;28;45277;-39
2024/01/09 09:26:08;;;;;;;;;27.25;15.25;;;;;0.70;57.17;102256.88;4974292;28;45470;-37
2024/01/09 09:28:33;;;;;;;;;25.25;23.00;;;;;0.73;57.01;102255.94;4974007;28;46045;-38
2024/01/09 09:30:58;;;;;;;;;20.50;15.00;;;;;0.71;57.14;102249.88;4974288;28;45795;-38
2024/01/09 09:33:28;;;;;;;;;22.75;17.00;;;;;0.79;56.80;102253.13;4974486;28;45485;-39
2024/01/09 09:35:54;;;;;;;;;25.50;17.00;;;;;0.83;56.20;102252.13;4974471;28;45390;-39
2024/01/09 09:38:19;;;;;;;;;20.75;19.00;;;;;0.86;57.10;102256.44;4974323;28;45446;-40
2024/01/09 09:40:44;;;;;;;;;21.50;17.50;;;;;0.90;57.08;102248.44;4974142;28;49012;-36
2024/01/09 09:43:14;;;;;;;;;30.75;20.00;;;;;0.95;56.49;102243.03;4974307;28;45267;-38
2024/01/09 09:45:43;;;;;;;;;22.50;20.00;;;;;1.05;55.79;102254.06;4974684;28;45478;-38
2024/01/09 09:48:10;;;;;;;;;30.25;20.00;;;;;1.11;55.61;102246.88;4974128;28;46444;-37
2024/01/09 09:50:36;;;;;;;;;24.25;17.50;;;;;1.19;55.50;102252.75;4975192;28;45323;-38
2024/01/09 09:53:01;;;;;;;;;21.50;15.50;;;;;1.24;55.96;102252.59;4977342;28;45185;-38
2024/01/09 09:55:26;;;;;;;;;27.50;20.75;;;;;1.34;55.65;102255.75;4992385;28;45489;-39
2024/01/09 09:57:52;;;;;;;;;17.75;16.50;;;;;1.38;55.47;102250.38;4976916;28;45398;-39
2024/01/09 10:00:18;;;;;;;;;25.50;17.00;;;;;1.43;55.21;102244.97;4976752;28;45265;-38
2024/01/09 10:02:48;;;;;;;;;20.25;17.00;;;;;1.41;55.31;102255.50;4976792;28;45435;-40
2024/01/09 10:05:16;;;;;;;;;29.50;22.00;;;;;1.36;54.93;102251.34;4976790;28;45422;-38
2024/01/09 10:07:45;;;;;;;;;18.75;15.75;;;;;1.30;55.17;102252.38;4976713;28;46351;-35
2024/01/09 10:10:12;;;;;;;;;27.25;20.00;;;;;1.19;53.39;102260.59;4976569;28;45342;-36
2024/01/09 10:12:39;;;;;;;;;24.00;20.75;;;;;1.13;55.09;102258.16;4977042;28;45491;-38
2024/01/09 10:15:07;;;;;;;;;19.25;17.50;;;;;1.11;55.41;102256.53;4977083;28;45206;-39
2024/01/09 10:17:36;;;;;;;;;25.25;21.50;;;;;1.08;55.29;102254.84;4976365;28;46231;-38
2024/01/09 10:20:04;;;;;;;;;22.00;19.25;;;;;1.04;54.95;102247.97;4976447;28;45434;-38
2024/01/09 10:22:31;;;;;;;;;25.00;21.75;;;;;1.04;55.27;102249.75;4976593;28;45520;-38
2024/01/09 10:24:57;;;;;;;;;31.25;21.25;;;;;1.00;55.03;102254.22;4976730;28;45366;-39
2024/01/09 10:27:22;;;;;;;;;20.50;18.25;;;;;0.96;55.01;102252.59;4976310;28;46202;-39
2024/01/09 10:29:48;;;;;;;;;18.50;15.50;;;;;0.92;55.50;102240.50;4976362;28;45387;-36
2024/01/09 10:32:14;;;;;;;;;25.25;21.00;;;;;0.86;54.60;102252.03;4976585;28;45433;-38
2024/01/09 10:34:39;;;;;;;;;26.00;23.50;;;;;0.87;54.63;102243.28;4976581;28;46100;-39
2024/01/09 10:37:08;;;;;;;;;33.50;23.00;;;;;0.90;54.76;102242.34;4976376;28;49850;-36
2024/01/09 10:39:34;;;;;;;;;27.50;19.50;;;;;0.95;55.24;102238.66;4976233;28;45497;-39
2024/01/09 10:42:09;;;;;;;;;29.75;23.50;;;;;1.00;55.45;102236.75;4976366;28;45407;-38
2024/01/09 10:44:38;;;;;;;;;29.00;24.50;;;;;0.99;54.65;102242.03;4976431;28;45465;-37
2024/01/09 10:47:04;;;;;;;;;26.75;20.50;;;;;0.99;55.09;102232.41;4975997;28;46621;-37
2024/01/09 10:49:31;;;;;;;;;23.50;17.00;;;;;1.00;55.31;102238.50;4976079;28;45387;-39
2024/01/09 10:51:58;;;;;;;;;21.25;19.50;;;;;0.95;54.89;102224.69;4976093;28;45423;-39
2024/01/09 10:54:25;;;;;;;;;27.75;19.00;;;;;0.96;54.38;102223.78;4976498;28;45263;-39
2024/01/09 10:56:53;;;;;;;;;21.75;21.00;;;;;1.02;54.00;102226.22;4976147;28;46341;-36
2024/01/09 10:59:19;;;;;;;;;30.50;25.00;;;;;1.03;54.10;102232.31;4976076;28;45283;-38
2024/01/09 11:01:45;;;;;;;;;28.00;24.00;;;;;1.03;54.21;102229.69;4976220;28;45466;-37
2024/01/09 11:04:10;;;;;;;;;27.50;22.00;;;;;0.98;54.55;102228.09;4991422;28;45382;-38
2024/01/09 11:06:36;;;;;;;;;33.25;20.50;;;;;0.96;54.68;102221.16;4975914;28;47089;-35
2024/01/09 11:09:04;;;;;;;;;25.25;18.75;;;;;0.91;54.50;102209.97;4975991;28;45394;-38
2024/01/09 11:11:34;;;;;;;;;33.75;22.50;;;;;0.90;54.67;102218.75;4976131;28;45379;-38
2024/01/09 11:14:06;;;;;;;;;30.00;22.00;;;;;0.89;54.26;102230.16;4975001;28;45438;-38